Time;durP1;ratioP1;P1;durP2;ratioP2;P2;SDS_P1;SDS_P2;PMS_P1;PMS_P2;Temp;Humidity;BMP_temperature;BMP_pressure;BME280_temperature;BME280_humidity;BME280_pressure;Samples;Min_cycle;Max_cycle;Signal;HPM_P1;HPM_P2
2022/01/09 00:00:23;;;;;;;11.27;9.95;;;4.50;99.90;;;;;;5134068;27;20043;-75
2022/01/09 00:02:49;;;;;;;11.82;10.65;;;4.50;99.90;;;;;;5128112;27;20070;-77
2022/01/09 00:05:15;;;;;;;11.90;10.70;;;4.50;99.90;;;;;;5127916;27;20117;-77
2022/01/09 00:07:41;;;;;;;10.77;9.68;;;4.50;99.90;;;;;;5125714;27;20047;-76
2022/01/09 00:10:07;;;;;;;11.00;9.82;;;4.50;99.90;;;;;;5133209;27;20045;-75
2022/01/09 00:12:34;;;;;;;11.65;10.48;;;4.50;99.90;;;;;;5131739;27;20043;-76
2022/01/09 00:15:00;;;;;;;9.85;9.00;;;4.60;99.90;;;;;;5132936;27;20499;-77
2022/01/09 00:17:25;;;;;;;8.90;8.20;;;4.50;99.90;;;;;;5130589;27;20047;-76
2022/01/09 00:19:51;;;;;;;9.63;8.73;;;4.50;99.90;;;;;;5133131;27;20131;-75
2022/01/09 00:22:20;;;;;;;9.07;8.38;;;4.50;99.90;;;;;;5131636;27;20040;-77
2022/01/09 00:24:46;;;;;;;9.45;8.65;;;4.50;99.90;;;;;;5133209;27;20078;-71
2022/01/09 00:27:12;;;;;;;10.50;9.60;;;4.50;99.90;;;;;;5124326;27;20519;-75
2022/01/09 00:29:37;;;;;;;9.25;8.52;;;4.50;99.90;;;;;;5114811;27;20480;-76
2022/01/09 00:32:03;;;;;;;9.95;9.07;;;4.50;99.90;;;;;;5132821;27;20051;-76
2022/01/09 00:34:29;;;;;;;9.95;9.15;;;4.50;99.90;;;;;;5131183;27;20043;-77
2022/01/09 00:36:55;;;;;;;9.68;8.77;;;4.50;99.90;;;;;;5130501;27;20047;-76
2022/01/09 00:39:21;;;;;;;9.93;9.02;;;4.50;99.90;;;;;;5133960;28;20126;-75
2022/01/09 00:41:47;;;;;;;9.85;9.00;;;4.50;99.90;;;;;;5130969;27;20055;-74
2022/01/09 00:44:13;;;;;;;10.48;9.57;;;4.50;99.90;;;;;;5131662;28;20436;-76
2022/01/09 00:46:38;;;;;;;10.10;9.30;;;4.50;99.90;;;;;;5133221;27;20050;-74
2022/01/09 00:49:04;;;;;;;9.70;8.90;;;4.50;99.90;;;;;;5130855;28;20125;-76
2022/01/09 00:51:31;;;;;;;10.40;9.40;;;4.50;99.90;;;;;;5133493;27;20476;-76
2022/01/09 00:53:57;;;;;;;10.23;9.35;;;4.50;99.90;;;;;;5130993;28;20039;-75
2022/01/09 00:56:22;;;;;;;10.05;9.15;;;4.50;99.90;;;;;;5133393;27;20039;-76
2022/01/09 00:58:48;;;;;;;10.30;9.30;;;4.50;99.90;;;;;;5130395;28;20047;-76
2022/01/09 01:01:14;;;;;;;10.07;9.20;;;4.50;99.90;;;;;;5132790;27;20043;-76
2022/01/09 01:03:40;;;;;;;10.32;9.43;;;4.40;99.90;;;;;;5128660;27;20492;-76
2022/01/09 01:06:06;;;;;;;10.20;9.40;;;4.40;99.90;;;;;;5132694;28;20047;-76
2022/01/09 01:08:31;;;;;;;10.73;9.73;;;4.50;99.90;;;;;;5130674;28;20411;-76
2022/01/09 01:10:57;;;;;;;10.15;9.30;;;4.40;99.90;;;;;;5132467;28;20185;-76
2022/01/09 01:13:23;;;;;;;11.13;10.02;;;4.50;99.90;;;;;;5130012;28;20548;-76
2022/01/09 01:15:48;;;;;;;11.27;10.25;;;4.40;99.90;;;;;;5132633;27;20043;-76
2022/01/09 01:18:14;;;;;;;11.57;10.57;;;4.40;99.90;;;;;;5129921;28;20049;-77
2022/01/09 01:20:41;;;;;;;11.07;10.05;;;4.40;99.90;;;;;;5133101;27;20040;-76
2022/01/09 01:23:07;;;;;;;11.73;10.63;;;4.40;99.90;;;;;;5130359;27;20047;-76
2022/01/09 01:25:34;;;;;;;11.27;10.30;;;4.40;99.90;;;;;;5133039;28;20070;-77
2022/01/09 01:28:00;;;;;;;12.23;11.23;;;4.40;99.90;;;;;;5120990;27;20097;-76
2022/01/09 01:30:26;;;;;;;12.25;11.05;;;4.40;99.90;;;;;;5112072;28;20098;-76
2022/01/09 01:32:52;;;;;;;12.57;11.48;;;4.40;99.90;;;;;;5116158;28;20055;-77
2022/01/09 01:35:18;;;;;;;12.50;11.40;;;4.40;99.90;;;;;;5132420;28;20054;-76
2022/01/09 01:37:43;;;;;;;14.07;12.88;;;4.40;99.90;;;;;;5121782;27;20068;-76
2022/01/09 01:40:13;;;;;;;13.25;12.05;;;4.40;99.90;;;;;;5111918;28;20125;-75
2022/01/09 01:42:39;;;;;;;14.07;12.80;;;4.40;99.90;;;;;;5120718;28;20035;-75
2022/01/09 01:45:05;;;;;;;14.90;13.50;;;4.40;99.90;;;;;;5130628;27;20047;-75
2022/01/09 01:47:31;;;;;;;15.40;14.00;;;4.40;99.90;;;;;;5131013;27;20035;-76
2022/01/09 01:49:57;;;;;;;17.33;15.82;;;4.40;99.90;;;;;;5132293;28;20043;-72
2022/01/09 01:52:29;;;;;;;17.80;16.23;;;4.40;99.90;;;;;;5125012;27;20051;-77
2022/01/09 01:54:54;;;;;;;17.92;16.33;;;4.40;99.90;;;;;;5116274;28;20058;-76
2022/01/09 01:57:20;;;;;;;18.52;16.92;;;4.40;99.90;;;;;;5117135;27;20878;-76
2022/01/09 01:59:46;;;;;;;20.50;18.67;;;4.40;99.90;;;;;;5116098;28;20035;-77
2022/01/09 02:02:12;;;;;;;21.80;19.80;;;4.40;99.90;;;;;;5113356;27;20050;-75
2022/01/09 02:04:37;;;;;;;22.70;20.52;;;4.40;99.90;;;;;;5128022;27;20047;-75
2022/01/09 02:07:04;;;;;;;23.00;20.77;;;4.40;99.90;;;;;;5133539;27;20039;-75
2022/01/09 02:09:30;;;;;;;24.75;22.30;;;4.40;99.90;;;;;;5136181;27;20043;-76
2022/01/09 02:11:56;;;;;;;26.30;23.77;;;4.40;99.90;;;;;;5133954;27;20051;-76
2022/01/09 02:14:22;;;;;;;27.50;24.70;;;4.40;99.90;;;;;;5135578;27;20200;-76
2022/01/09 02:16:50;;;;;;;27.95;25.15;;;4.40;99.90;;;;;;5133684;27;20468;-74
2022/01/09 02:19:16;;;;;;;29.00;26.10;;;4.50;99.90;;;;;;5117473;27;20044;-75
2022/01/09 02:21:44;;;;;;;28.80;25.88;;;4.40;99.90;;;;;;5133735;27;20047;-75
2022/01/09 02:24:11;;;;;;;31.73;28.67;;;4.40;99.90;;;;;;5123763;27;20050;-75
2022/01/09 02:26:37;;;;;;;33.25;29.95;;;4.40;99.90;;;;;;5148088;27;20047;-74
2022/01/09 02:29:05;;;;;;;28.90;26.10;;;4.50;99.90;;;;;;5133343;27;20050;-72
2022/01/09 02:31:31;;;;;;;31.27;28.20;;;4.50;99.90;;;;;;5135456;27;20457;-76
2022/01/09 02:33:57;;;;;;;30.45;27.45;;;4.50;99.90;;;;;;5133947;27;20074;-76
2022/01/09 02:36:23;;;;;;;30.73;27.63;;;4.50;99.90;;;;;;5134861;27;20542;-76
2022/01/09 02:38:48;;;;;;;31.13;28.08;;;4.50;99.90;;;;;;5133273;27;20043;-76
2022/01/09 02:41:15;;;;;;;32.03;28.85;;;4.50;99.90;;;;;;5135087;27;20492;-76
2022/01/09 02:43:40;;;;;;;34.30;30.77;;;4.50;99.90;;;;;;5127356;27;20042;-76
2022/01/09 02:46:25;;;;;;;34.92;31.05;;;4.50;99.90;;;;;;5135197;27;20484;-73
2022/01/09 02:48:51;;;;;;;35.40;31.75;;;4.50;99.90;;;;;;5116006;27;20130;-76
2022/01/09 02:51:18;;;;;;;35.28;31.52;;;4.50;99.90;;;;;;5125613;27;20043;-75
2022/01/09 02:53:47;;;;;;;35.13;31.35;;;4.50;99.90;;;;;;5132808;27;20081;-76
2022/01/09 02:56:14;;;;;;;36.13;31.55;;;4.50;99.90;;;;;;5134784;27;20047;-75
2022/01/09 02:58:41;;;;;;;33.45;29.67;;;4.50;99.90;;;;;;5115361;27;20047;-76
2022/01/09 03:01:10;;;;;;;30.88;26.52;;;4.50;99.90;;;;;;5114519;28;20048;-72
2022/01/09 03:03:36;;;;;;;31.10;26.80;;;4.50;99.90;;;;;;5131054;27;20047;-76
2022/01/09 03:06:02;;;;;;;32.03;27.02;;;4.50;99.90;;;;;;5134875;27;20078;-76
2022/01/09 03:08:28;;;;;;;30.88;25.92;;;4.50;99.90;;;;;;5116278;27;20054;-76
2022/01/09 03:10:54;;;;;;;28.83;25.23;;;4.50;99.90;;;;;;5114068;28;20427;-76
2022/01/09 03:13:20;;;;;;;29.33;25.13;;;4.60;99.90;;;;;;5129597;27;20047;-76
2022/01/09 03:15:46;;;;;;;29.23;25.13;;;4.60;99.90;;;;;;5134921;27;20506;-75
2022/01/09 03:18:12;;;;;;;30.80;25.05;;;4.60;99.90;;;;;;5131579;27;20456;-75
2022/01/09 03:20:38;;;;;;;29.33;24.08;;;4.60;99.90;;;;;;5134636;27;20039;-76
2022/01/09 03:23:04;;;;;;;23.08;19.92;;;4.60;99.90;;;;;;5118603;27;20055;-76
2022/01/09 03:25:30;;;;;;;23.75;18.55;;;4.70;99.90;;;;;;5113460;28;20633;-76
2022/01/09 03:27:57;;;;;;;24.23;19.00;;;4.70;99.90;;;;;;5124805;27;20050;-76
2022/01/09 03:30:24;;;;;;;25.75;19.55;;;4.80;99.90;;;;;;5133754;27;20047;-75
2022/01/09 03:32:51;;;;;;;24.17;19.52;;;4.80;99.90;;;;;;5131934;27;20407;-75
2022/01/09 03:35:19;;;;;;;25.30;19.35;;;4.80;99.90;;;;;;5133749;27;20480;-75
2022/01/09 03:37:46;;;;;;;25.35;18.20;;;4.80;99.90;;;;;;5122037;27;20084;-76
2022/01/09 03:40:14;;;;;;;24.92;17.75;;;4.90;99.90;;;;;;5164537;27;20047;-73
2022/01/09 03:42:40;;;;;;;24.90;17.38;;;4.90;99.90;;;;;;5129960;27;20047;-76
2022/01/09 03:45:07;;;;;;;23.42;16.25;;;4.90;99.90;;;;;;5134435;27;20047;-76
2022/01/09 03:47:35;;;;;;;25.55;15.35;;;4.90;99.90;;;;;;5131237;27;20122;-76
2022/01/09 03:50:05;;;;;;;24.17;15.35;;;4.90;99.90;;;;;;5134253;27;20137;-76
2022/01/09 03:52:31;;;;;;;22.15;14.70;;;5.00;99.90;;;;;;5122862;27;20081;-76
2022/01/09 03:54:57;;;;;;;21.58;14.75;;;5.00;99.90;;;;;;5133900;27;20096;-76
2022/01/09 03:57:22;;;;;;;26.05;16.13;;;5.00;99.90;;;;;;5128923;27;20051;-75
2022/01/09 03:59:48;;;;;;;25.35;16.85;;;5.00;99.90;;;;;;5132145;27;20039;-76
2022/01/09 04:02:14;;;;;;;25.50;15.80;;;5.10;99.90;;;;;;5131819;27;20480;-76
2022/01/09 04:04:40;;;;;;;28.10;15.73;;;5.10;99.90;;;;;;5133230;27;20038;-76
2022/01/09 04:07:05;;;;;;;31.75;15.65;;;5.10;99.90;;;;;;5121405;27;20039;-74
2022/01/09 04:09:41;;;;;;;34.85;16.42;;;5.20;99.90;;;;;;5133245;27;20042;-76
2022/01/09 04:12:15;;;;;;;30.70;15.43;;;5.20;99.90;;;;;;5131444;27;20047;-76
2022/01/09 04:14:47;;;;;;;31.75;14.95;;;5.20;99.90;;;;;;5132675;27;20503;-75
2022/01/09 04:17:26;;;;;;;31.38;12.73;;;5.30;99.90;;;;;;5130933;27;20035;-76
2022/01/09 04:19:52;;;;;;;31.90;13.43;;;5.30;99.90;;;;;;5133173;27;20484;-76
2022/01/09 04:22:18;;;;;;;27.63;11.40;;;5.30;99.90;;;;;;5131289;27;20050;-73
2022/01/09 04:24:43;;;;;;;30.60;10.27;;;5.30;99.90;;;;;;5133153;27;20039;-76
2022/01/09 04:27:09;;;;;;;31.05;10.02;;;5.30;99.90;;;;;;5130998;27;20149;-76
2022/01/09 04:29:35;;;;;;;31.77;9.70;;;5.40;99.90;;;;;;5132549;27;20047;-76
2022/01/09 04:32:00;;;;;;;37.38;8.75;;;5.40;99.90;;;;;;5129373;27;20051;-76
2022/01/09 04:34:26;;;;;;;31.92;8.70;;;5.40;99.90;;;;;;5132604;27;20047;-75
2022/01/09 04:36:52;;;;;;;38.47;8.10;;;5.50;99.90;;;;;;5129544;27;20392;-75
2022/01/09 04:39:19;;;;;;;41.20;7.50;;;5.50;99.90;;;;;;5129793;27;20090;-76
2022/01/09 04:41:45;;;;;;;30.30;7.05;;;5.60;99.90;;;;;;5132630;27;20047;-75
2022/01/09 04:44:10;;;;;;;40.58;8.00;;;5.70;99.90;;;;;;5131013;27;20042;-75
2022/01/09 04:46:46;;;;;;;31.80;6.45;;;5.70;99.90;;;;;;5129518;28;20474;-76
2022/01/09 04:49:11;;;;;;;36.33;6.80;;;5.70;99.90;;;;;;5131105;27;20044;-76
2022/01/09 04:51:38;;;;;;;30.80;6.82;;;5.70;99.90;;;;;;5131430;28;20529;-76
2022/01/09 04:54:04;;;;;;;30.33;7.10;;;5.80;99.90;;;;;;5130906;27;20087;-76
2022/01/09 04:56:31;;;;;;;35.58;6.45;;;5.80;99.90;;;;;;5123738;27;20066;-75
2022/01/09 04:58:57;;;;;;;25.20;6.15;;;5.80;99.90;;;;;;5117445;28;20047;-76
2022/01/09 05:01:22;;;;;;;30.90;5.93;;;5.80;99.90;;;;;;5131374;27;20042;-72
2022/01/09 05:03:48;;;;;;;27.02;5.80;;;5.80;99.90;;;;;;5131242;27;20464;-76
2022/01/09 05:06:14;;;;;;;23.02;5.03;;;5.80;99.90;;;;;;5118988;28;20040;-76
2022/01/09 05:08:39;;;;;;;24.52;5.15;;;5.80;99.90;;;;;;5129816;28;20476;-76
2022/01/09 05:11:05;;;;;;;27.30;5.78;;;5.80;99.90;;;;;;5132036;28;20046;-72
2022/01/09 05:13:31;;;;;;;23.83;5.32;;;5.80;99.90;;;;;;5122422;28;20039;-77
2022/01/09 05:15:56;;;;;;;28.35;6.38;;;5.80;99.90;;;;;;5113642;28;20039;-76
2022/01/09 05:18:22;;;;;;;26.30;5.35;;;5.80;99.90;;;;;;5129789;28;20054;-77
2022/01/09 05:20:48;;;;;;;25.38;5.05;;;5.80;99.90;;;;;;5132249;27;20043;-76
2022/01/09 05:23:14;;;;;;;24.40;5.18;;;5.80;99.90;;;;;;5130814;27;20103;-76
2022/01/09 05:25:40;;;;;;;23.70;5.43;;;5.80;99.90;;;;;;5131312;28;20046;-76
2022/01/09 05:28:05;;;;;;;23.90;5.20;;;5.80;99.90;;;;;;5131698;27;20047;-76
2022/01/09 05:30:31;;;;;;;24.40;4.75;;;5.80;99.90;;;;;;5135890;27;20050;-75
2022/01/09 05:32:57;;;;;;;22.73;4.85;;;5.80;99.90;;;;;;5134615;27;20413;-77
2022/01/09 05:35:25;;;;;;;25.63;4.75;;;5.80;99.90;;;;;;5136620;27;20103;-76
2022/01/09 05:37:52;;;;;;;20.35;4.47;;;5.80;99.90;;;;;;5133978;27;20527;-76
2022/01/09 05:40:19;;;;;;;23.83;5.68;;;5.90;99.90;;;;;;5136579;27;20477;-76
2022/01/09 05:42:46;;;;;;;20.08;4.32;;;5.80;99.90;;;;;;5132086;27;20043;-76
2022/01/09 05:45:12;;;;;;;17.35;4.30;;;5.80;99.90;;;;;;5136711;27;20107;-76
2022/01/09 05:47:38;;;;;;;17.65;3.60;;;5.80;99.90;;;;;;5133636;27;20035;-76
2022/01/09 05:50:05;;;;;;;17.90;3.97;;;5.80;99.90;;;;;;5136399;27;20544;-76
2022/01/09 05:52:30;;;;;;;20.58;4.63;;;5.80;99.90;;;;;;5133743;27;20100;-72
2022/01/09 05:54:56;;;;;;;20.65;4.30;;;5.80;99.90;;;;;;5136259;27;20039;-77
2022/01/09 05:57:22;;;;;;;19.85;3.50;;;5.80;99.90;;;;;;5134339;27;20479;-76
2022/01/09 05:59:48;;;;;;;18.17;3.90;;;5.70;99.90;;;;;;5135275;27;20039;-76
2022/01/09 06:02:13;;;;;;;18.83;4.10;;;5.70;99.90;;;;;;5133692;27;20484;-76
2022/01/09 06:04:39;;;;;;;15.95;3.25;;;5.70;99.90;;;;;;5134802;27;20130;-76
2022/01/09 06:07:05;;;;;;;16.75;3.38;;;5.70;99.90;;;;;;5133853;27;20047;-74
2022/01/09 06:09:30;;;;;;;14.52;3.20;;;5.70;99.90;;;;;;5136058;27;20088;-76
2022/01/09 06:11:56;;;;;;;13.43;3.35;;;5.60;99.90;;;;;;5134886;27;20046;-77
2022/01/09 06:14:22;;;;;;;17.20;4.38;;;5.60;99.90;;;;;;5132339;27;20475;-76
2022/01/09 06:16:48;;;;;;;13.43;3.53;;;5.60;99.90;;;;;;5135418;27;20043;-76
2022/01/09 06:19:14;;;;;;;17.90;4.10;;;5.60;99.90;;;;;;5129624;27;20071;-77
2022/01/09 06:21:39;;;;;;;18.23;3.83;;;5.50;99.90;;;;;;5135536;27;20054;-76
2022/01/09 06:24:05;;;;;;;15.38;3.35;;;5.50;99.90;;;;;;5117515;27;20498;-78
2022/01/09 06:26:31;;;;;;;15.82;3.47;;;5.50;99.90;;;;;;5115128;28;20393;-77
2022/01/09 06:28:57;;;;;;;14.15;3.65;;;5.50;99.90;;;;;;5128048;27;20043;-77
2022/01/09 06:31:23;;;;;;;17.00;4.28;;;5.50;99.90;;;;;;5135101;27;20043;-77
2022/01/09 06:33:48;;;;;;;14.93;3.67;;;5.50;99.90;;;;;;5132938;27;20074;-77
2022/01/09 06:36:14;;;;;;;13.55;3.17;;;5.40;99.90;;;;;;5135696;27;20468;-78
2022/01/09 06:38:40;;;;;;;11.45;3.33;;;5.50;99.90;;;;;;5132311;27;20392;-76
2022/01/09 06:41:07;;;;;;;17.08;3.65;;;5.50;99.90;;;;;;5135275;27;20043;-77
2022/01/09 06:43:33;;;;;;;14.05;3.47;;;5.40;99.90;;;;;;5125579;27;20047;-77
2022/01/09 06:45:58;;;;;;;12.68;3.17;;;5.40;99.90;;;;;;5134910;27;20049;-76
2022/01/09 06:48:24;;;;;;;13.30;3.00;;;5.40;99.90;;;;;;5132299;27;20039;-76
2022/01/09 06:50:50;;;;;;;11.90;3.25;;;5.40;99.90;;;;;;5132842;27;20100;-77
2022/01/09 06:53:15;;;;;;;12.88;3.03;;;5.40;99.90;;;;;;5132814;27;20081;-75
2022/01/09 06:55:43;;;;;;;13.48;2.75;;;5.40;99.90;;;;;;5133532;27;20499;-76
2022/01/09 06:58:09;;;;;;;12.77;2.85;;;5.40;99.90;;;;;;5133070;27;20057;-77
2022/01/09 07:00:34;;;;;;;12.35;2.95;;;5.40;99.90;;;;;;5134906;27;20114;-77
2022/01/09 07:03:00;;;;;;;12.20;3.00;;;5.40;99.90;;;;;;5130377;27;20046;-77
2022/01/09 07:05:26;;;;;;;13.88;3.67;;;5.40;99.90;;;;;;5135228;27;20039;-77
2022/01/09 07:07:52;;;;;;;8.68;2.60;;;5.40;99.90;;;;;;5132599;27;20054;-77
2022/01/09 07:10:17;;;;;;;12.00;3.35;;;5.30;99.90;;;;;;5134729;27;20073;-77
2022/01/09 07:12:43;;;;;;;12.93;2.90;;;5.30;99.90;;;;;;5132504;27;20104;-75
2022/01/09 07:15:09;;;;;;;10.30;3.13;;;5.30;99.90;;;;;;5135142;27;20047;-77
2022/01/09 07:17:35;;;;;;;10.27;2.28;;;5.30;99.90;;;;;;5129518;27;20039;-76
2022/01/09 07:20:01;;;;;;;9.82;2.42;;;5.30;99.90;;;;;;5134096;27;20043;-76
2022/01/09 07:22:27;;;;;;;14.52;3.00;;;5.30;99.90;;;;;;5131682;27;20047;-77
2022/01/09 07:24:53;;;;;;;9.80;2.67;;;5.20;99.90;;;;;;5133999;27;20062;-76
2022/01/09 07:27:19;;;;;;;12.90;2.92;;;5.20;99.90;;;;;;5121996;27;20051;-78
2022/01/09 07:29:45;;;;;;;11.93;2.70;;;5.20;99.90;;;;;;5129541;27;20122;-75
2022/01/09 07:32:10;;;;;;;9.77;2.67;;;5.20;99.90;;;;;;5132637;27;20139;-77
2022/01/09 07:34:36;;;;;;;8.25;2.35;;;5.20;99.90;;;;;;5134562;27;20129;-77
2022/01/09 07:37:02;;;;;;;10.30;2.90;;;5.20;99.90;;;;;;5121205;27;20474;-76
2022/01/09 07:39:28;;;;;;;9.10;2.85;;;5.20;99.90;;;;;;5124568;27;20118;-77
2022/01/09 07:41:54;;;;;;;8.52;2.33;;;5.10;99.90;;;;;;5133677;27;20039;-76
2022/01/09 07:44:20;;;;;;;10.93;2.78;;;5.10;99.90;;;;;;5122831;27;20407;-77
2022/01/09 07:46:46;;;;;;;7.97;1.85;;;5.10;99.90;;;;;;5112471;28;20048;-72
2022/01/09 07:49:12;;;;;;;12.50;2.42;;;5.10;99.90;;;;;;5121207;27;20047;-77
2022/01/09 07:51:37;;;;;;;6.43;2.25;;;5.10;99.90;;;;;;5133560;27;20039;-77
2022/01/09 07:54:03;;;;;;;7.50;2.35;;;5.10;99.90;;;;;;5126419;27;20123;-76
2022/01/09 07:56:29;;;;;;;7.93;1.98;;;5.10;99.90;;;;;;5120941;27;20054;-76
2022/01/09 07:58:54;;;;;;;9.82;2.70;;;5.10;99.90;;;;;;5131420;27;20050;-76
2022/01/09 08:01:20;;;;;;;7.55;2.15;;;5.10;99.90;;;;;;5133412;27;20491;-72
2022/01/09 08:03:46;;;;;;;8.65;2.72;;;5.10;99.90;;;;;;5132621;27;20082;-75
2022/01/09 08:06:11;;;;;;;9.30;2.40;;;5.10;99.90;;;;;;5133941;27;20131;-77
2022/01/09 08:08:37;;;;;;;8.00;2.15;;;5.10;99.90;;;;;;5130806;27;20050;-76
2022/01/09 08:11:03;;;;;;;10.43;3.08;;;5.00;99.90;;;;;;5131142;27;20047;-76
2022/01/09 08:13:28;;;;;;;8.95;2.42;;;5.00;99.90;;;;;;5132205;27;20043;-76
2022/01/09 08:15:54;;;;;;;8.80;2.38;;;5.10;99.90;;;;;;5131712;27;20085;-75
2022/01/09 08:18:20;;;;;;;8.43;2.35;;;5.10;99.90;;;;;;5127761;27;20125;-76
2022/01/09 08:20:45;;;;;;;8.02;2.67;;;5.10;99.90;;;;;;5133949;27;20035;-76
2022/01/09 08:23:12;;;;;;;8.63;2.08;;;5.10;99.90;;;;;;5130513;27;20047;-76
2022/01/09 08:25:38;;;;;;;8.60;2.00;;;5.10;99.90;;;;;;5133043;27;20087;-76
2022/01/09 08:28:04;;;;;;;7.70;2.10;;;5.10;99.90;;;;;;5130277;27;20070;-77
2022/01/09 08:30:29;;;;;;;5.70;1.60;;;5.20;99.90;;;;;;5133614;27;20122;-77
2022/01/09 08:32:55;;;;;;;8.02;2.33;;;5.30;99.90;;;;;;5130983;27;20515;-76
2022/01/09 08:35:22;;;;;;;6.00;1.80;;;5.20;99.90;;;;;;5133626;27;20062;-77
2022/01/09 08:37:48;;;;;;;6.45;2.05;;;5.20;99.90;;;;;;5130922;27;20131;-74
2022/01/09 08:40:19;;;;;;;8.00;2.33;;;5.20;99.90;;;;;;5131483;27;20047;-77
2022/01/09 08:42:46;;;;;;;6.13;2.10;;;5.30;99.90;;;;;;5127864;28;20053;-78
2022/01/09 08:45:12;;;;;;;7.13;1.95;;;5.20;99.90;;;;;;5130599;27;20502;-78
2022/01/09 08:47:38;;;;;;;8.02;2.95;;;5.30;99.90;;;;;;5126513;27;20039;-77
2022/01/09 08:50:06;;;;;;;7.43;2.13;;;5.20;99.90;;;;;;5118334;28;20043;-77
2022/01/09 08:52:32;;;;;;;7.22;1.80;;;5.30;99.90;;;;;;5115819;28;20091;-78
2022/01/09 08:54:58;;;;;;;5.78;1.83;;;5.20;99.90;;;;;;5130339;28;20484;-78
2022/01/09 08:57:25;;;;;;;8.10;2.08;;;5.30;99.90;;;;;;5125905;27;20043;-77
2022/01/09 08:59:52;;;;;;;10.13;2.13;;;5.30;99.90;;;;;;5122950;28;20040;-78
2022/01/09 09:02:18;;;;;;;6.88;2.10;;;5.30;99.90;;;;;;5113747;28;20044;-78
2022/01/09 09:04:43;;;;;;;8.63;2.10;;;5.30;99.90;;;;;;5120970;27;20499;-70
2022/01/09 09:07:09;;;;;;;5.78;1.80;;;5.30;99.90;;;;;;5132325;27;20043;-78
2022/01/09 09:09:36;;;;;;;9.23;2.13;;;5.30;99.90;;;;;;5127899;27;20054;-79
2022/01/09 09:12:03;;;;;;;6.30;1.75;;;5.30;99.90;;;;;;5125579;27;20104;-77
2022/01/09 09:14:29;;;;;;;6.43;1.95;;;5.40;99.90;;;;;;5115966;27;20044;-78
2022/01/09 09:16:55;;;;;;;9.13;2.20;;;5.40;99.90;;;;;;5116780;27;20514;-83
2022/01/09 09:19:21;;;;;;;8.48;2.10;;;5.40;99.90;;;;;;5116432;28;20040;-78
2022/01/09 09:21:47;;;;;;;9.18;2.50;;;5.40;99.90;;;;;;5117797;27;20452;-78
2022/01/09 09:24:13;;;;;;;7.43;2.45;;;5.50;99.90;;;;;;5136374;27;20051;-78
2022/01/09 09:26:39;;;;;;;9.73;2.13;;;5.40;99.90;;;;;;5134096;27;20074;-79
2022/01/09 09:29:05;;;;;;;8.55;2.60;;;5.50;99.90;;;;;;5115958;28;20039;-78
2022/01/09 09:31:32;;;;;;;9.35;2.47;;;5.50;99.90;;;;;;5116224;27;20043;-78
2022/01/09 09:33:57;;;;;;;9.93;2.70;;;5.50;99.90;;;;;;5123085;27;20048;-73
2022/01/09 09:36:24;;;;;;;12.95;2.88;;;5.50;99.90;;;;;;5115265;28;20395;-80
2022/01/09 09:38:51;;;;;;;7.32;2.78;;;5.50;99.90;;;;;;5116372;28;20047;-79
2022/01/09 09:41:17;;;;;;;11.43;2.65;;;5.60;99.90;;;;;;5133701;27;20151;-79
2022/01/09 09:43:42;;;;;;;8.32;2.67;;;5.60;99.90;;;;;;5130293;27;20126;-79
2022/01/09 09:46:08;;;;;;;9.02;2.80;;;5.60;99.90;;;;;;5115699;28;20039;-78
2022/01/09 09:48:34;;;;;;;11.15;2.97;;;5.60;99.90;;;;;;5115983;28;20044;-79
2022/01/09 09:51:00;;;;;;;10.68;3.17;;;5.60;99.90;;;;;;5115837;28;20079;-73
2022/01/09 09:53:26;;;;;;;10.93;3.33;;;5.70;99.90;;;;;;5115807;28;20054;-78
2022/01/09 09:55:53;;;;;;;12.88;3.20;;;5.70;99.90;;;;;;5115992;28;20086;-79
2022/01/09 09:58:21;;;;;;;14.05;3.90;;;5.70;99.90;;;;;;5115415;28;20044;-79
2022/01/09 10:00:57;;;;;;;13.98;3.70;;;5.70;99.90;;;;;;5115592;28;20043;-79
2022/01/09 10:03:30;;;;;;;11.35;3.35;;;5.70;99.90;;;;;;5115380;28;20260;-78
2022/01/09 10:05:56;;;;;;;10.60;3.05;;;5.70;99.90;;;;;;5115896;28;20051;-78
2022/01/09 10:08:38;;;;;;;13.65;3.22;;;5.80;99.90;;;;;;5115230;28;20791;-79
2022/01/09 10:11:14;;;;;;;11.10;3.50;;;5.80;99.90;;;;;;5115003;27;20480;-72
2022/01/09 10:13:40;;;;;;;12.90;3.25;;;5.80;99.90;;;;;;5119764;27;20556;-79
2022/01/09 10:16:09;;;;;;;12.27;3.75;;;5.80;99.90;;;;;;5139378;27;20043;-77
2022/01/09 10:18:44;;;;;;;10.68;3.10;;;5.90;99.90;;;;;;5136237;27;20047;-79
2022/01/09 10:21:15;;;;;;;11.05;3.15;;;5.90;99.90;;;;;;5135198;27;20050;-78
2022/01/09 10:24:00;;;;;;;10.75;2.90;;;5.80;99.90;;;;;;5148733;27;20049;-79
2022/01/09 10:26:27;;;;;;;12.32;3.15;;;5.90;99.90;;;;;;5146997;27;20047;-79
2022/01/09 10:28:53;;;;;;;11.82;2.90;;;5.90;99.90;;;;;;5142571;27;20460;-79
2022/01/09 10:31:19;;;;;;;8.35;2.88;;;5.90;99.90;;;;;;5136673;27;20046;-79
2022/01/09 10:34:08;;;;;;;11.32;3.15;;;5.90;99.90;;;;;;5135611;27;20055;-79
2022/01/09 10:36:43;;;;;;;14.10;3.63;;;6.00;99.90;;;;;;5136788;27;20055;-79
2022/01/09 10:39:14;;;;;;;10.23;3.30;;;6.00;99.90;;;;;;5135161;27;20474;-78
2022/01/09 10:41:51;;;;;;;9.63;3.20;;;6.00;99.90;;;;;;5138462;27;20368;-80
2022/01/09 10:44:21;;;;;;;13.88;3.17;;;6.00;99.90;;;;;;5133853;27;20126;-79
2022/01/09 10:47:15;;;;;;;11.75;3.40;;;6.10;99.90;;;;;;5134476;27;20047;-78
2022/01/09 10:49:47;;;;;;;11.18;3.25;;;6.10;99.90;;;;;;5132554;27;20126;-79
2022/01/09 10:52:25;;;;;;;12.02;3.22;;;6.20;99.90;;;;;;5133317;27;20079;-78
2022/01/09 10:54:52;;;;;;;12.25;3.20;;;6.20;99.90;;;;;;5127003;27;20086;-79
2022/01/09 10:57:27;;;;;;;11.68;3.20;;;6.20;99.90;;;;;;5137640;27;20042;-78
2022/01/09 10:59:53;;;;;;;10.57;3.08;;;6.30;99.90;;;;;;5133233;27;20039;-78
2022/01/09 11:02:20;;;;;;;11.35;3.20;;;6.40;99.90;;;;;;5133664;27;20084;-78
2022/01/09 11:04:49;;;;;;;10.63;3.10;;;6.40;99.90;;;;;;5133721;27;20095;-78
2022/01/09 11:07:16;;;;;;;10.20;3.10;;;6.50;99.90;;;;;;5132097;27;20047;-79
2022/01/09 11:09:47;;;;;;;12.15;2.95;;;6.40;99.90;;;;;;5128610;27;20039;-78
2022/01/09 11:12:19;;;;;;;12.25;4.07;;;6.50;99.90;;;;;;5114964;27;20412;-74
2022/01/09 11:14:47;;;;;;;12.05;3.33;;;6.60;99.90;;;;;;5128987;27;20046;-73
2022/01/09 11:17:15;;;;;;;13.90;3.42;;;6.60;99.90;;;;;;5132572;27;20139;-73
2022/01/09 11:19:42;;;;;;;10.05;3.08;;;6.60;99.90;;;;;;5123601;27;20458;-79
2022/01/09 11:22:10;;;;;;;11.43;3.50;;;6.70;99.90;;;;;;5115163;27;20047;-80
2022/01/09 11:24:59;;;;;;;10.02;3.25;;;6.70;99.90;;;;;;5114407;27;20050;-78
2022/01/09 11:27:58;;;;;;;11.05;3.40;;;6.70;99.90;;;;;;5126227;27;20050;-79
2022/01/09 11:31:05;;;;;;;9.30;3.33;;;6.70;99.90;;;;;;5134088;27;20039;-79
2022/01/09 11:33:58;;;;;;;8.98;2.90;;;6.70;99.90;;;;;;5113104;28;20112;-78
2022/01/09 11:36:31;;;;;;;10.40;3.17;;;6.70;99.90;;;;;;5126449;27;20057;-79
2022/01/09 11:39:13;;;;;;;11.18;2.83;;;6.70;99.90;;;;;;5113985;27;20052;-79
2022/01/09 11:41:40;;;;;;;10.80;3.28;;;6.80;99.90;;;;;;5133489;27;20516;-79
2022/01/09 11:44:09;;;;;;;10.10;2.90;;;6.80;99.90;;;;;;5131786;27;20069;-78
2022/01/09 11:46:55;;;;;;;7.95;2.95;;;6.70;99.90;;;;;;5131702;27;20061;-80
2022/01/09 11:49:22;;;;;;;10.68;3.47;;;6.80;99.90;;;;;;5129132;27;20055;-78
2022/01/09 11:51:53;;;;;;;8.38;2.95;;;6.80;99.90;;;;;;5131619;27;20097;-80
2022/01/09 11:54:20;;;;;;;11.10;3.00;;;6.80;99.90;;;;;;5133359;27;20498;-79
2022/01/09 11:56:58;;;;;;;8.52;3.15;;;6.80;99.90;;;;;;5130257;27;20456;-80
2022/01/09 11:59:40;;;;;;;9.80;3.10;;;6.80;99.90;;;;;;5118908;27;20391;-79
2022/01/09 12:02:12;;;;;;;9.80;3.38;;;6.80;99.90;;;;;;5128366;27;20087;-79
2022/01/09 12:04:41;;;;;;;9.23;2.97;;;6.80;99.90;;;;;;5113236;28;20055;-79
2022/01/09 12:07:15;;;;;;;9.10;2.53;;;6.80;99.90;;;;;;5115740;27;20050;-80
2022/01/09 12:09:45;;;;;;;7.05;2.53;;;6.70;99.90;;;;;;5131743;27;20043;-80
2022/01/09 12:12:15;;;;;;;10.90;3.40;;;6.70;99.90;;;;;;5131963;27;20114;-80
2022/01/09 12:15:05;;;;;;;7.97;2.75;;;6.80;99.90;;;;;;5131403;27;20146;-80
2022/01/09 12:17:35;;;;;;;9.23;3.00;;;6.80;99.90;;;;;;5128104;27;20051;-80
2022/01/09 12:20:13;;;;;;;10.90;3.00;;;6.80;99.90;;;;;;5121918;27;20049;-79
2022/01/09 12:22:39;;;;;;;12.50;3.10;;;6.80;99.90;;;;;;5131877;27;20051;-79
2022/01/09 12:25:25;;;;;;;10.48;3.50;;;6.80;99.90;;;;;;5129244;27;20039;-79
2022/01/09 12:28:08;;;;;;;8.63;3.10;;;6.90;99.90;;;;;;5117438;27;20051;-79
2022/01/09 12:30:49;;;;;;;9.77;3.03;;;6.90;99.90;;;;;;5124291;27;20035;-78
2022/01/09 12:33:19;;;;;;;;;;;6.90;99.90;;;;;;5114251;27;20134;-80
2022/01/09 12:35:51;;;;;;;9.45;2.92;;;7.00;99.90;;;;;;5116613;27;20006;-80
2022/01/09 12:38:19;;;;;;;9.43;3.40;;;7.00;99.90;;;;;;5115930;27;20055;-78
2022/01/09 12:40:46;;;;;;;10.90;3.40;;;7.10;99.90;;;;;;5129311;27;20138;-77
2022/01/09 12:43:14;;;;;;;11.10;3.13;;;7.10;99.90;;;;;;5121584;27;20095;-79
2022/01/09 12:45:43;;;;;;;7.53;2.88;;;7.10;99.90;;;;;;5120600;28;20063;-75
2022/01/09 12:48:25;;;;;;;13.43;3.28;;;7.10;99.90;;;;;;5118252;27;20074;-79
2022/01/09 12:50:51;;;;;;;9.60;3.33;;;7.10;99.90;;;;;;5130190;27;20079;-80